Aviosuperficie AS77

IT-0302 · Friuli Venezia Giulia, 意大利

罗盘
风向 的 风向 020°
风: 3 kt, 1 beaufort

添加一条跑道以查看侧风和逆风信息。

添置 跑道
0 2.000 4.000 6.000 8.000 10.000
BKN 5.300 ft
METAR LIPQ 042150Z AUTO 02003KT 9999 BKN053/// 08/07 Q1018

METAR Aviosuperficie AS77 - IT-0302

Aviosuperficie AS77是,意大利中的小机场。 该领域的国际民航组织标志是IT-0302.

这份报告是针对2022年12月4日 22:50, 当地时间在Trieste–Friuli Venezia Giulia Airport进行的。

机场观察

风向为020°,速度为3 kt。

可见度为10 km 或者更多。

有碎云在5.300 ft的高度。 破损或更高的上限为5.300 ft。

温度为8 °C,阵风为6 °C。 露点为7 °C,相对湿度为93%。 海平面上的气压为1018 hPa (QNH)。

白天

今天,太阳从07:31升起,在16:22降落。 这适用于Aviosuperficie AS77,世界夏令时可能有所不同。 当地时间与世界标准时间之间的时差为+1 小时。 当前,没有夏令时有效。

公司介绍

我们没有关于这个机场的公司信息。

体会

到Vliegles.nl去找飞行课程,跳伞和其他飞行体验。 浏览页面,了解Aviosuperficie AS77附近所有可用的活动。 你也可以使用搜索功能来寻找你所在地附近的特定飞行课程、跳伞或其他飞行体验。

乌云

5.300 ft BKN 碎云

温度 & 天气

温度 8 °C
露点 7 °C
相对湿度 93%
风寒 6 °C
Kp-index 3 (0-9)

白天

日出
07:30 (8:18)
中午
11:56
日落
16:22

小工具

你想在你的网站上有一个关于Aviosuperficie AS77的当前航空天气(METAR)的小部件吗?

显示HTML代码

我们和第三方通过cookies跟踪您在我们网站上的互联网行为。如果你继续,我们认为你同意我们的饼干政策